Time;durP1;ratioP1;P1;durP2;ratioP2;P2;SDS_P1;SDS_P2;PMS_P1;PMS_P2;Temp;Humidity;BMP_temperature;BMP_pressure;BME280_temperature;BME280_humidity;BME280_pressure;Samples;Min_cycle;Max_cycle;Signal;HPM_P1;HPM_P2
2022/06/27 00:00:45;;;;;;;;;3.67;3.67;;;;;20.15;53.09;101024.25;5078441;27;45349;-78
2022/06/27 00:03:11;;;;;;;;;3.00;3.00;;;;;20.12;53.24;101017.25;5067228;28;45177;-73
2022/06/27 00:05:37;;;;;;;;;5.67;4.00;;;;;20.26;53.06;101034.53;5072826;27;45672;-72
2022/06/27 00:08:02;;;;;;;;;3.67;3.00;;;;;20.25;52.86;101032.78;5074956;28;47038;-73
2022/06/27 00:10:28;;;;;;;;;2.00;2.00;;;;;20.22;52.56;101032.91;5075533;28;45328;-76
2022/06/27 00:12:54;;;;;;;;;4.00;4.00;;;;;20.09;52.63;101019.13;5058149;28;45473;-76
2022/06/27 00:15:20;;;;;;;;;3.00;3.00;;;;;20.20;52.55;101054.22;5059425;28;45436;-78
2022/06/27 00:17:45;;;;;;;;;4.33;3.00;;;;;20.18;52.88;101060.50;5060184;28;45542;-77
2022/06/27 00:20:12;;;;;;;;;3.00;3.00;;;;;20.06;52.83;101056.47;5056502;28;45462;-73
2022/06/27 00:22:37;;;;;;;;;2.00;2.00;;;;;19.96;53.01;101060.34;5045021;28;45492;-74
2022/06/27 00:25:03;;;;;;;;;3.67;3.00;;;;;19.85;53.24;101037.63;5040458;28;46328;-71
2022/06/27 00:27:29;;;;;;;;;2.33;2.33;;;;;19.87;53.28;101035.78;5043560;28;46307;-76
2022/06/27 00:29:55;;;;;;;;;3.00;3.00;;;;;19.88;53.33;101026.91;5033840;28;45581;-76
2022/06/27 00:32:23;;;;;;;;;4.00;2.00;;;;;19.95;52.74;101032.88;5019265;28;45478;-75
2022/06/27 00:34:49;;;;;;;;;1.00;1.00;;;;;20.04;52.34;101040.56;5040067;28;47526;-79
2022/06/27 00:37:14;;;;;;;;;4.67;4.00;;;;;19.96;52.32;101031.09;5034062;28;46732;-75
2022/06/27 00:39:40;;;;;;;;;2.33;2.33;;;;;20.00;52.86;101038.91;5040228;28;45878;-76
2022/06/27 00:42:06;;;;;;;;;5.00;5.00;;;;;19.88;53.21;101037.53;5054193;28;45477;-75
2022/06/27 00:44:38;;;;;;;;;4.33;4.33;;;;;19.77;53.13;101034.34;5040441;28;45789;-78
2022/06/27 00:47:07;;;;;;;;;4.67;3.67;;;;;19.79;53.02;101045.78;5054325;28;45407;-77
2022/06/27 00:49:34;;;;;;;;;4.33;3.00;;;;;19.60;52.75;101015.34;5053937;28;45469;-78
2022/06/27 00:52:04;;;;;;;;;4.00;4.00;;;;;19.74;52.86;101042.38;5046623;28;45472;-78
2022/06/27 00:54:30;;;;;;;;;3.33;3.00;;;;;19.74;52.90;101045.03;5052448;28;45386;-77
2022/06/27 00:56:56;;;;;;;;;3.33;3.33;;;;;19.61;52.75;101030.38;5057852;28;45372;-77
2022/06/27 00:59:22;;;;;;;;;3.33;3.33;;;;;19.69;52.91;101042.56;5061444;28;45334;-75
2022/06/27 01:01:48;;;;;;;;;5.00;3.00;;;;;19.67;53.45;101054.09;5061477;28;45200;-77
2022/06/27 01:04:16;;;;;;;;;3.33;2.00;;;;;19.41;53.07;101023.00;5051507;28;45458;-72
2022/06/27 01:06:42;;;;;;;;;2.33;2.33;;;;;19.62;53.17;101045.41;5053521;28;46551;-76
2022/06/27 01:09:08;;;;;;;;;2.67;2.67;;;;;19.61;52.79;101035.69;5031428;28;45390;-78
2022/06/27 01:11:34;;;;;;;;;5.00;4.00;;;;;19.60;52.93;101028.63;5049491;28;45548;-76
2022/06/27 01:14:00;;;;;;;;;4.00;4.00;;;;;19.64;52.81;101032.94;5075750;28;45847;-76
2022/06/27 01:16:26;;;;;;;;;2.67;2.67;;;;;19.68;52.58;101034.63;5077107;28;45437;-75
2022/06/27 01:18:52;;;;;;;;;4.67;4.00;;;;;19.86;52.63;101049.09;5077145;27;45626;-76
2022/06/27 01:21:24;;;;;;;;;2.33;2.00;;;;;19.76;52.43;101029.06;5077316;27;45567;-76
2022/06/27 01:23:51;;;;;;;;;2.00;2.00;;;;;19.80;52.80;101049.31;5110138;27;45494;-77
2022/06/27 01:26:18;;;;;;;;;2.00;2.00;;;;;19.59;52.93;101040.19;5077931;28;47720;-75
2022/06/27 01:28:44;;;;;;;;;3.00;3.00;;;;;19.59;52.93;101037.53;5081400;28;45633;-79
2022/06/27 01:31:13;;;;;;;;;4.00;4.00;;;;;19.60;52.63;101047.22;5081612;27;45401;-75
2022/06/27 01:33:39;;;;;;;;;6.00;3.00;;;;;19.72;52.69;101064.63;5081414;27;45291;-76
2022/06/27 01:38:55;;;;;;;;;3.00;3.00;;;;;19.74;52.50;101071.63;5077553;28;45295;-76
2022/06/27 01:41:21;;;;;;;;;3.33;3.33;;;;;19.75;52.54;101073.38;5076977;27;45345;-76
2022/06/27 01:43:48;;;;;;;;;5.00;4.50;;;;;19.74;52.94;101071.63;5068288;27;45419;-77
2022/06/27 01:46:13;;;;;;;;;3.00;3.00;;;;;19.53;52.88;101045.66;5075448;28;46886;-77
2022/06/27 01:48:39;;;;;;;;;6.67;3.00;;;;;19.70;52.96;101070.00;5077169;27;45523;-72
2022/06/27 01:51:08;;;;;;;;;3.67;3.33;;;;;19.67;52.62;101064.72;5076860;27;45554;-74
2022/06/27 01:53:37;;;;;;;;;7.00;4.00;;;;;19.64;52.57;101060.38;5077523;27;45394;-78
2022/06/27 01:56:04;;;;;;;;;4.00;3.00;;;;;19.63;52.66;101055.13;5076985;28;46455;-71
2022/06/27 01:58:31;;;;;;;;;3.33;3.33;;;;;19.39;52.80;101027.50;5076810;27;45553;-76
2022/06/27 02:00:57;;;;;;;;;4.00;3.67;;;;;19.55;53.01;101062.44;5076781;28;45321;-74
2022/06/27 02:03:23;;;;;;;;;4.67;4.67;;;;;19.20;53.05;101004.16;5078597;27;45446;-76
2022/06/27 02:05:51;;;;;;;;;4.67;3.67;;;;;19.51;52.82;101059.03;5080846;27;45297;-75
2022/06/27 02:08:20;;;;;;;;;3.00;3.00;;;;;19.51;52.94;101050.19;5063755;27;45414;-73
2022/06/27 02:10:46;;;;;;;;;3.67;3.67;;;;;19.41;52.69;101047.81;5076076;27;45823;-75
2022/06/27 02:13:12;;;;;;;;;5.33;3.33;;;;;19.35;52.97;101031.16;5076557;27;45545;-76
2022/06/27 02:16:27;;;;;;;;;7.00;4.00;;;;;19.42;53.10;101049.53;5076240;27;45717;-75
2022/06/27 02:18:53;;;;;;;;;3.33;3.33;;;;;19.43;53.00;101042.41;5074549;27;45479;-74
2022/06/27 02:21:24;;;;;;;;;4.00;3.33;;;;;19.45;53.13;101040.59;5080827;27;45340;-74
2022/06/27 02:23:51;;;;;;;;;5.00;4.00;;;;;19.44;53.12;101041.53;5076586;27;45666;-76
2022/06/27 02:26:20;;;;;;;;;3.67;3.00;;;;;19.41;53.21;101050.47;5075759;27;45559;-77
2022/06/27 02:28:46;;;;;;;;;2.00;2.00;;;;;19.43;53.11;101064.56;5074796;27;45868;-76
2022/06/27 02:31:12;;;;;;;;;3.00;3.00;;;;;19.46;53.04;101061.81;5076743;28;45676;-77
2022/06/27 02:33:41;;;;;;;;;3.00;3.00;;;;;19.46;52.96;101052.97;5076858;27;45601;-77
2022/06/27 02:36:09;;;;;;;;;4.00;3.67;;;;;19.42;52.81;101053.97;5076248;28;46356;-75
2022/06/27 02:38:34;;;;;;;;;4.00;4.00;;;;;19.39;52.70;101044.31;5075994;27;45369;-76
2022/06/27 02:41:03;;;;;;;;;4.00;4.00;;;;;19.45;52.63;101054.75;5076059;27;45872;-76
2022/06/27 02:43:32;;;;;;;;;2.67;2.67;;;;;19.50;52.64;101051.94;5068825;28;45298;-75
2022/06/27 02:45:58;;;;;;;;;4.00;2.00;;;;;19.53;53.12;101065.16;5076081;28;45599;-76
2022/06/27 02:48:26;;;;;;;;;3.00;3.00;;;;;19.49;52.67;101056.41;5078415;27;45731;-74
2022/06/27 02:50:56;;;;;;;;;4.00;4.00;;;;;19.43;52.54;101047.72;5076737;27;45244;-72
2022/06/27 02:53:31;;;;;;;;;3.33;2.67;;;;;19.47;52.74;101071.50;5074848;28;45711;-73
2022/06/27 02:56:01;;;;;;;;;4.67;4.00;;;;;19.36;53.48;101076.28;5076989;27;45966;-74
2022/06/27 02:58:38;;;;;;;;;4.67;4.00;;;;;19.23;53.68;101066.91;5073503;28;45487;-75
2022/06/27 03:01:04;;;;;;;;;6.67;6.67;;;;;19.22;54.12;101073.13;5076099;28;45420;-74
2022/06/27 03:03:32;;;;;;;;;5.33;4.00;;;;;19.21;54.08;101080.22;5077828;28;45251;-73
2022/06/27 03:06:03;;;;;;;;;4.00;4.00;;;;;19.14;54.02;101059.22;5078934;27;46223;-74
2022/06/27 03:08:47;;;;;;;;;4.00;4.00;;;;;19.17;54.38;101032.56;5076150;27;45373;-74
2022/06/27 03:11:16;;;;;;;;;3.67;3.00;;;;;19.45;53.88;101054.75;5074570;28;45981;-75
2022/06/27 03:13:44;;;;;;;;;5.33;3.00;;;;;19.60;53.22;101058.75;5056724;27;45611;-69
2022/06/27 03:16:11;;;;;;;;;2.33;2.33;;;;;19.69;53.83;101049.63;5063788;27;46113;-74
2022/06/27 03:18:37;;;;;;;;;5.00;3.67;;;;;19.65;52.74;101027.59;5071862;27;45420;-74
2022/06/27 03:21:03;;;;;;;;;4.00;4.00;;;;;19.69;52.96;101050.53;5064381;27;46330;-74
2022/06/27 03:23:35;;;;;;;;;3.33;3.00;;;;;19.61;53.06;101057.81;5063692;27;45528;-67
2022/06/27 03:26:01;;;;;;;;;5.00;5.00;;;;;19.57;53.20;101049.97;5073147;27;47782;-74
2022/06/27 03:28:26;;;;;;;;;4.33;4.33;;;;;19.43;53.37;101024.72;5058660;28;45523;-75
2022/06/27 03:30:52;;;;;;;;;5.00;3.33;;;;;19.51;53.49;101043.09;5086978;27;45354;-75
2022/06/27 03:33:17;;;;;;;;;4.00;4.00;;;;;19.35;53.62;101018.75;5055313;27;45600;-72
2022/06/27 03:35:43;;;;;;;;;4.67;4.67;;;;;19.39;53.38;101040.78;5055877;27;46146;-76
2022/06/27 03:38:12;;;;;;;;;2.00;2.00;;;;;19.39;53.69;101044.31;5055561;27;45470;-78
2022/06/27 03:40:38;;;;;;;;;3.00;3.00;;;;;19.32;53.60;101015.34;5054995;27;45399;-73
2022/06/27 03:43:04;;;;;;;;;4.00;3.00;;;;;19.37;53.63;101014.28;5087887;27;46048;-77
2022/06/27 03:45:30;;;;;;;;;5.00;5.00;;;;;19.42;53.97;101036.25;5068094;28;45476;-72
2022/06/27 03:47:59;;;;;;;;;5.33;4.67;;;;;19.30;53.93;101012.72;5079386;27;45426;-71
2022/06/27 03:50:26;;;;;;;;;3.67;3.67;;;;;19.54;53.53;101058.06;5079485;28;46263;-75
2022/06/27 03:52:53;;;;;;;;;6.00;4.00;;;;;19.56;53.57;101059.75;5079232;28;45350;-74
2022/06/27 03:55:19;;;;;;;;;4.00;4.00;;;;;19.52;53.55;101057.22;5073804;27;46260;-72
2022/06/27 03:57:51;;;;;;;;;6.00;4.00;;;;;19.53;53.70;101057.19;5075460;27;45690;-80
2022/06/27 04:00:19;;;;;;;;;3.00;3.00;;;;;19.49;53.70;101056.41;5079615;27;45443;-76
2022/06/27 04:02:45;;;;;;;;;3.00;3.00;;;;;19.43;53.78;101034.47;5076513;27;45718;-76
2022/06/27 04:05:11;;;;;;;;;2.33;2.33;;;;;19.53;53.78;101061.63;5074590;27;45641;-78
2022/06/27 04:07:38;;;;;;;;;3.33;3.00;;;;;19.48;53.67;101060.00;5078499;27;45211;-79
2022/06/27 04:10:08;;;;;;;;;3.00;3.00;;;;;19.37;53.37;101008.97;5079112;27;45168;-79
2022/06/27 04:12:35;;;;;;;;;3.67;2.00;;;;;19.71;53.62;101055.78;5095207;27;45383;-80
2022/06/27 04:15:01;;;;;;;;;3.67;3.00;;;;;19.56;53.46;101056.22;5077173;27;46171;-79
2022/06/27 04:17:27;;;;;;;;;5.00;3.00;;;;;19.84;53.39;101075.75;5075188;27;45409;-77
2022/06/27 04:19:52;;;;;;;;;2.00;2.00;;;;;19.85;53.35;101072.16;5074965;27;45341;-78
2022/06/27 04:22:18;;;;;;;;;5.00;5.00;;;;;19.90;53.20;101078.19;5075186;27;45403;-75
2022/06/27 04:24:44;;;;;;;;;3.33;3.33;;;;;19.75;53.39;101057.44;5075480;27;45484;-72
2022/06/27 04:27:09;;;;;;;;;3.00;3.00;;;;;19.94;53.38;101086.97;5077989;28;45344;-78
2022/06/27 04:29:35;;;;;;;;;2.67;2.67;;;;;19.96;52.99;101090.44;5075262;27;45235;-74
2022/06/27 04:32:01;;;;;;;;;3.00;3.00;;;;;19.99;53.14;101108.97;5075253;27;45580;-76
2022/06/27 04:34:28;;;;;;;;;5.00;3.67;;;;;19.86;52.86;101075.69;5077675;27;46129;-70
2022/06/27 04:36:53;;;;;;;;;3.00;3.00;;;;;20.01;53.16;101098.28;5081800;27;45299;-71
2022/06/27 04:39:20;;;;;;;;;3.00;3.00;;;;;20.11;52.52;101121.88;5083233;27;45403;-78
2022/06/27 04:41:50;;;;;;;;;3.00;1.00;;;;;20.18;52.52;101129.66;5081641;27;45530;-79
2022/06/27 04:44:18;;;;;;;;;5.00;3.00;;;;;20.12;52.83;101136.03;5063473;27;45761;-77
2022/06/27 04:46:47;;;;;;;;;3.33;3.33;;;;;20.10;53.04;101130.78;5077969;28;45720;-77
2022/06/27 04:49:19;;;;;;;;;5.00;3.00;;;;;19.77;53.18;101092.81;5076732;28;45374;-79
2022/06/27 04:51:48;;;;;;;;;4.00;3.67;;;;;19.98;53.21;101124.94;5078238;27;45877;-77
2022/06/27 04:54:16;;;;;;;;;4.00;4.00;;;;;20.04;53.25;101098.19;5078169;28;46258;-75
2022/06/27 04:56:43;;;;;;;;;6.00;3.00;;;;;20.06;53.17;101083.06;5064706;28;45500;-78
2022/06/27 04:59:09;;;;;;;;;4.00;2.67;;;;;20.07;52.78;101077.69;5078775;28;45490;-78
2022/06/27 05:01:37;;;;;;;;;3.67;3.67;;;;;20.15;52.60;101080.09;5093852;27;45886;-76
2022/06/27 05:04:03;;;;;;;;;3.00;2.67;;;;;20.16;52.61;101065.00;5075946;28;45864;-75
2022/06/27 05:06:30;;;;;;;;;3.00;3.00;;;;;20.19;52.50;101054.25;5077408;28;45275;-73
2022/06/27 05:08:55;;;;;;;;;4.00;4.00;;;;;20.32;52.58;101064.44;5078082;27;45330;-77
2022/06/27 05:11:21;;;;;;;;;3.67;3.67;;;;;20.17;52.55;101043.69;5077697;27;45479;-77
2022/06/27 05:13:47;;;;;;;;;4.00;4.00;;;;;20.37;52.37;101076.75;5077965;27;45845;-76
2022/06/27 05:16:14;;;;;;;;;2.00;2.00;;;;;20.33;52.06;101098.13;5081936;27;45446;-78
2022/06/27 05:18:40;;;;;;;;;3.00;2.00;;;;;20.35;52.32;101090.06;5081111;28;45631;-78
2022/06/27 05:21:06;;;;;;;;;4.33;4.33;;;;;20.45;52.09;101103.94;5077986;28;45416;-78
2022/06/27 05:23:32;;;;;;;;;4.00;4.00;;;;;20.46;52.20;101084.41;5079490;27;45425;-77
2022/06/27 05:26:04;;;;;;;;;2.67;2.67;;;;;20.47;52.44;101094.13;5078362;28;45400;-78
2022/06/27 05:28:29;;;;;;;;;3.33;2.67;;;;;20.38;52.94;101063.38;5078944;28;46645;-80
2022/06/27 05:30:56;;;;;;;;;4.67;4.67;;;;;20.37;52.66;101079.41;5067796;28;45341;-77
2022/06/27 05:33:22;;;;;;;;;4.00;4.00;;;;;19.90;52.64;101040.13;5077930;27;45475;-78
2022/06/27 05:35:49;;;;;;;;;6.00;4.33;;;;;20.22;52.59;101097.59;5078849;28;45324;-78
2022/06/27 05:38:15;;;;;;;;;2.00;2.00;;;;;20.09;52.33;101041.25;5077962;28;45736;-70
2022/06/27 05:40:41;;;;;;;;;3.00;3.00;;;;;20.11;52.40;101030.59;5081583;27;45550;-77
2022/06/27 05:43:08;;;;;;;;;5.00;5.00;;;;;20.40;52.27;101096.09;5077172;28;46438;-78
2022/06/27 05:45:35;;;;;;;;;3.00;3.00;;;;;20.21;52.44;101076.38;5109239;27;45447;-79
2022/06/27 05:48:04;;;;;;;;;8.00;3.67;;;;;20.37;52.98;101124.63;5082049;27;45607;-79
2022/06/27 05:50:30;;;;;;;;;5.00;4.00;;;;;20.31;53.03;101118.59;5079009;27;45822;-73
2022/06/27 05:52:59;;;;;;;;;4.00;3.00;;;;;20.39;53.15;101121.00;5079254;27;45554;-72
2022/06/27 05:55:28;;;;;;;;;3.33;3.33;;;;;20.42;52.76;101126.19;5081928;27;45712;-76
2022/06/27 05:57:56;;;;;;;;;4.00;4.00;;;;;20.13;52.75;101085.47;5081919;27;45357;-77
2022/06/27 06:00:23;;;;;;;;;3.00;3.00;;;;;20.24;53.03;101111.72;5082616;27;45460;-71
2022/06/27 06:02:49;;;;;;;;;5.00;3.67;;;;;20.44;52.58;101147.44;5077448;27;45704;-78
2022/06/27 06:05:15;;;;;;;;;3.00;3.00;;;;;20.49;52.46;101140.19;5076846;27;45363;-79
2022/06/27 06:07:45;;;;;;;;;3.67;2.67;;;;;20.54;52.37;101151.53;5077296;27;45346;-72
2022/06/27 06:10:12;;;;;;;;;4.33;4.33;;;;;20.57;52.48;101154.13;5077353;27;45512;-78
2022/06/27 06:12:38;;;;;;;;;3.00;3.00;;;;;20.60;52.08;101156.69;5076727;27;45439;-76
2022/06/27 06:15:04;;;;;;;;;2.67;2.67;;;;;20.60;52.03;101145.19;5077214;27;45982;-78
2022/06/27 06:17:34;;;;;;;;;3.00;3.00;;;;;20.50;52.18;101120.63;5080181;27;45413;-79
2022/06/27 06:20:00;;;;;;;;;5.00;4.00;;;;;20.45;52.37;101144.72;5076478;27;45664;-78
2022/06/27 06:22:26;;;;;;;;;5.00;4.00;;;;;20.42;52.39;101114.69;5075986;27;45463;-80
2022/06/27 06:24:52;;;;;;;;;4.33;4.00;;;;;20.51;52.45;101117.06;5075914;28;45543;-78
2022/06/27 06:27:18;;;;;;;;;4.00;4.00;;;;;20.51;52.47;101133.03;5079935;27;45454;-77
2022/06/27 06:29:44;;;;;;;;;5.00;3.00;;;;;20.61;52.46;101160.22;5079987;27;45485;-69
2022/06/27 06:32:11;;;;;;;;;4.00;3.67;;;;;20.61;52.27;101161.09;5077330;28;45487;-73
2022/06/27 06:34:38;;;;;;;;;3.00;3.00;;;;;20.66;52.09;101158.28;5077853;27;45743;-71
2022/06/27 06:37:05;;;;;;;;;3.00;1.00;;;;;20.67;52.43;101166.22;5080651;27;45496;-69
2022/06/27 06:39:31;;;;;;;;;3.33;3.33;;;;;20.64;52.36;101176.09;5077580;27;45371;-70
2022/06/27 06:42:00;;;;;;;;;3.67;3.00;;;;;20.71;52.08;101172.28;5075502;27;46459;-71
2022/06/27 06:44:25;;;;;;;;;6.00;4.67;;;;;20.75;51.97;101168.63;5063179;27;45400;-75
2022/06/27 06:46:52;;;;;;;;;4.00;3.00;;;;;20.70;51.59;101144.81;5076590;27;45420;-71
2022/06/27 06:49:18;;;;;;;;;3.00;3.00;;;;;20.80;51.54;101161.34;5076137;27;45502;-70
2022/06/27 06:51:44;;;;;;;;;4.00;4.00;;;;;20.73;51.45;101157.16;5075296;27;45210;-75
2022/06/27 06:54:12;;;;;;;;;4.67;4.00;;;;;20.83;51.56;101184.34;5072168;28;45428;-70
2022/06/27 06:56:38;;;;;;;;;3.00;3.00;;;;;20.83;51.41;101197.63;5078727;28;45413;-81
2022/06/27 06:59:10;;;;;;;;;5.00;3.33;;;;;20.83;51.57;101197.63;5076452;27;45460;-82
2022/06/27 07:01:37;;;;;;;;;6.33;3.67;;;;;20.84;51.73;101199.41;5075817;28;47073;-74
2022/06/27 07:04:03;;;;;;;;;5.00;5.00;;;;;20.79;51.38;101196.03;5073205;28;45425;-70
2022/06/27 07:06:31;;;;;;;;;5.00;3.00;;;;;20.88;51.65;101227.63;5070658;27;45954;-72
2022/06/27 07:08:58;;;;;;;;;3.00;3.00;;;;;20.69;51.46;101204.31;5076333;27;45524;-71
2022/06/27 07:11:28;;;;;;;;;4.00;4.00;;;;;20.59;51.88;101210.81;5072447;27;46639;-85
2022/06/27 07:13:56;;;;;;;;;4.00;3.33;;;;;20.53;51.83;101211.88;5050971;28;45310;-79
2022/06/27 07:16:24;;;;;;;;;5.00;3.33;;;;;20.72;51.55;101249.44;5040209;28;45205;-78
2022/06/27 07:18:51;;;;;;;;;3.00;3.00;;;;;20.77;52.14;101253.75;5057050;28;45423;-76
2022/06/27 07:21:19;;;;;;;;;3.67;3.67;;;;;20.72;51.55;101240.59;5036538;28;45802;-75
2022/06/27 07:23:47;;;;;;;;;4.00;3.00;;;;;20.80;51.80;101240.34;5039216;28;45896;-76
2022/06/27 07:26:16;;;;;;;;;5.33;2.33;;;;;20.84;51.57;101236.66;5039678;28;45315;-80
2022/06/27 07:28:42;;;;;;;;;4.00;3.00;;;;;20.84;51.11;101226.03;5057423;28;44745;-77
2022/06/27 07:31:16;;;;;;;;;4.67;4.00;;;;;21.08;51.25;101242.97;5050720;28;46233;-76
2022/06/27 07:33:48;;;;;;;;;3.67;3.00;;;;;21.15;50.77;101236.50;5054838;28;45545;-72
2022/06/27 07:36:15;;;;;;;;;4.00;3.33;;;;;21.12;50.17;101202.88;5052489;28;46018;-74
2022/06/27 07:38:43;;;;;;;;;2.67;2.67;;;;;21.49;50.04;101235.38;5060052;28;45634;-81
2022/06/27 07:41:09;;;;;;;;;4.00;3.33;;;;;21.61;49.65;101237.59;5057914;28;45403;-73
2022/06/27 07:43:37;;;;;;;;;3.33;1.67;;;;;21.71;48.95;101235.44;5050971;28;45417;-78
2022/06/27 07:46:03;;;;;;;;;4.67;3.67;;;;;21.87;48.80;101246.44;5066268;28;45473;-80
2022/06/27 07:48:30;;;;;;;;;4.00;4.00;;;;;21.94;48.18;101237.28;5059789;28;45737;-79
2022/06/27 07:50:56;;;;;;;;;3.00;3.00;;;;;21.97;47.45;101219.38;5059882;28;45482;-78
2022/06/27 07:53:23;;;;;;;;;3.00;3.00;;;;;22.28;47.57;101242.25;5055607;28;46288;-79
2022/06/27 07:55:57;;;;;;;;;3.00;3.00;;;;;22.44;46.75;101251.38;5060769;28;45389;-72
2022/06/27 07:58:38;;;;;;;;;2.00;2.00;;;;;22.43;46.56;101246.97;5041175;28;45539;-70
2022/06/27 08:01:10;;;;;;;;;3.00;3.00;;;;;22.56;46.77;101251.81;5048713;28;45600;-78
2022/06/27 08:03:40;;;;;;;;;3.00;3.00;;;;;22.65;46.14;101262.13;5049680;28;45482;-74
2022/06/27 08:06:18;;;;;;;;;4.00;4.00;;;;;22.77;46.02;101261.63;5060247;28;45525;-77
2022/06/27 08:08:55;;;;;;;;;3.00;3.00;;;;;22.90;45.67;101261.13;5040974;28;45542;-69
2022/06/27 08:11:23;;;;;;;;;3.00;3.00;;;;;23.20;45.45;101259.88;5042636;27;48127;-74
2022/06/27 08:14:08;;;;;;;;;2.67;2.67;;;;;23.25;44.71;101257.91;5064529;27;45387;-78
2022/06/27 08:16:36;;;;;;;;;2.67;2.67;;;;;23.49;44.49;101260.44;5103135;27;45411;-74
2022/06/27 08:19:02;;;;;;;;;3.67;3.67;;;;;23.59;43.93;101266.28;5064071;28;45579;-75
2022/06/27 08:21:28;;;;;;;;;2.00;2.00;;;;;23.54;43.77;101268.25;5100027;27;46903;-77
2022/06/27 08:24:17;;;;;;;;;1.67;1.67;;;;;23.39;43.97;101254.63;5063629;28;45526;-83
2022/06/27 08:26:53;;;;;;;;;2.67;2.67;;;;;23.44;43.84;101289.19;5073867;27;45472;-79
2022/06/27 08:29:20;;;;;;;;;4.00;2.33;;;;;23.29;44.52;101293.38;5067755;28;45403;-76
2022/06/27 08:31:48;;;;;;;;;2.00;2.00;;;;;23.09;44.43;101283.53;5070219;27;46573;-81
2022/06/27 08:34:14;;;;;;;;;4.33;2.00;;;;;23.12;44.81;101285.22;5073676;27;45447;-78
2022/06/27 08:36:44;;;;;;;;;2.00;2.00;;;;;23.06;44.65;101263.16;5074618;27;45405;-82
2022/06/27 08:39:18;;;;;;;;;4.33;2.00;;;;;23.29;44.20;101299.59;5063433;28;45378;-79
2022/06/27 08:41:45;;;;;;;;;3.00;3.00;;;;;23.08;43.94;101255.06;5064692;27;47255;-80
2022/06/27 08:44:17;;;;;;;;;3.33;2.00;;;;;23.10;43.96;101257.69;5074956;27;45470;-79
2022/06/27 08:46:46;;;;;;;;;2.33;2.33;;;;;23.11;44.10;101292.34;5072542;28;45585;-81
2022/06/27 08:49:14;;;;;;;;;3.00;3.00;;;;;22.84;43.86;101275.63;5068558;27;45587;-78
2022/06/27 08:51:42;;;;;;;;;3.33;3.00;;;;;22.95;43.71;101297.44;5060285;28;47089;-77
2022/06/27 08:54:08;;;;;;;;;2.00;2.00;;;;;22.83;43.19;101282.78;5054851;28;45493;-80
2022/06/27 08:56:34;;;;;;;;;1.00;1.00;;;;;22.90;42.80;101274.50;5068233;28;45894;-81
2022/06/27 08:59:00;;;;;;;;;2.00;2.00;;;;;23.06;42.94;101305.91;5055161;28;45413;-79
2022/06/27 09:01:27;;;;;;;;;2.67;2.67;;;;;23.28;42.75;101294.31;5058479;28;45303;-79
2022/06/27 09:04:06;;;;;;;;;2.00;2.00;;;;;23.43;42.10;101291.00;5061633;28;45480;-80
2022/06/27 09:06:43;;;;;;;;;2.00;1.67;;;;;23.36;41.80;101284.16;5086969;27;45697;-80
2022/06/27 09:09:11;;;;;;;;;4.67;1.67;;;;;23.33;41.13;101273.63;5074613;28;45493;-82
2022/06/27 09:11:49;;;;;;;;;2.00;1.00;;;;;23.45;41.56;101275.75;5054152;28;46705;-82
2022/06/27 09:14:36;;;;;;;;;2.00;2.00;;;;;23.33;41.58;101254.03;5057631;28;45429;-81
2022/06/27 09:17:04;;;;;;;;;1.00;1.00;;;;;23.47;41.10;101287.25;5058602;27;45326;-80
2022/06/27 09:19:47;;;;;;;;;2.67;2.67;;;;;23.52;41.29;101275.50;5059257;28;45490;-82
2022/06/27 09:22:15;;;;;;;;;4.00;2.00;;;;;23.49;40.05;101263.09;5057573;27;46165;-79
2022/06/27 09:25:01;;;;;;;;;2.00;2.00;;;;;23.74;39.57;101279.00;5061646;27;45459;-83
2022/06/27 09:27:43;;;;;;;;;2.00;2.00;;;;;23.52;39.36;101246.97;5060762;27;45432;-82
2022/06/27 09:30:21;;;;;;;;;2.33;1.00;;;;;23.67;38.83;101289.06;5060060;27;45504;-82
2022/06/27 09:32:51;;;;;;;;;2.00;2.00;;;;;23.32;38.67;101238.94;5060243;27;45610;-77
2022/06/27 09:35:26;;;;;;;;;2.00;1.00;;;;;23.53;38.73;101288.78;5067589;27;45306;-81
2022/06/27 09:37:58;;;;;;;;;1.00;1.00;;;;;23.49;38.80;101287.16;5061222;27;45352;-78
2022/06/27 09:40:25;;;;;;;;;2.00;1.00;;;;;23.35;38.65;101271.75;5059111;27;45999;-82
2022/06/27 09:42:54;;;;;;;;;1.67;1.33;;;;;23.18;39.14;101250.19;5061061;27;46356;-82
2022/06/27 09:45:24;;;;;;;;;3.00;2.00;;;;;23.07;38.93;101246.19;5069312;28;45504;-81
2022/06/27 09:48:00;;;;;;;;;3.00;2.00;;;;;23.01;39.34;101219.72;5078848;27;45499;-82
2022/06/27 09:50:29;;;;;;;;;1.00;1.00;;;;;23.32;39.10;101281.69;5081463;27;45512;-77
2022/06/27 09:52:56;;;;;;;;;3.00;2.00;;;;;23.33;38.65;101281.63;5078382;27;45420;-81
2022/06/27 09:55:23;;;;;;;;;4.00;1.67;;;;;23.33;39.17;101281.63;5076771;28;45483;-78
2022/06/27 09:57:50;;;;;;;;;1.00;1.00;;;;;23.32;39.16;101277.22;5080645;27;45293;-81
2022/06/27 10:00:19;;;;;;;;;1.00;1.00;;;;;23.17;38.99;101246.66;5077526;27;45354;-71
2022/06/27 10:02:46;;;;;;;;;1.00;1.00;;;;;23.35;38.47;101273.53;5078727;27;46272;-80
2022/06/27 10:05:17;;;;;;;;;1.00;1.00;;;;;23.26;38.89;101242.75;5081754;27;45480;-78
2022/06/27 10:08:05;;;;;;;;;1.00;1.00;;;;;23.48;38.64;101280.09;5079549;28;45365;-81
2022/06/27 10:10:52;;;;;;;;;1.00;1.00;;;;;23.50;38.43;101275.56;5065414;28;45381;-77
2022/06/27 10:13:17;;;;;;;;;1.00;1.00;;;;;23.41;38.40;101263.44;5077707;27;46684;-80
2022/06/27 10:15:45;;;;;;;;;2.33;2.00;;;;;23.44;37.47;101284.72;5077418;28;45675;-81
2022/06/27 10:18:10;;;;;;;;;1.00;1.00;;;;;22.93;37.01;101211.13;5078663;28;45473;-74
2022/06/27 10:20:38;;;;;;;;;0.33;0.33;;;;;23.34;36.63;101285.16;5078982;27;45445;-77
2022/06/27 10:23:04;;;;;;;;;2.00;1.00;;;;;23.36;36.73;101294.00;5078511;28;45769;-83
2022/06/27 10:25:29;;;;;;;;;1.67;1.00;;;;;23.39;36.78;101293.84;5078256;28;45303;-80
2022/06/27 10:28:10;;;;;;;;;1.00;1.00;;;;;23.25;36.78;101298.00;5080578;27;45358;-82
2022/06/27 10:30:42;;;;;;;;;1.67;1.67;;;;;23.25;36.54;101286.41;5079757;27;45460;-83
2022/06/27 10:33:34;;;;;;;;;2.00;2.00;;;;;23.33;36.65;101286.97;5077894;27;46379;-81
2022/06/27 10:36:15;;;;;;;;;3.00;2.00;;;;;23.43;36.29;101295.47;5068188;28;45199;-71
2022/06/27 10:38:49;;;;;;;;;0.67;0.67;;;;;23.44;37.06;101273.13;5080875;27;45376;-80
2022/06/27 10:41:17;;;;;;;;;1.00;1.00;;;;;23.74;37.01;101297.72;5081066;27;45417;-76
2022/06/27 10:43:50;;;;;;;;;1.00;1.00;;;;;23.95;36.61;101282.50;5067945;28;45637;-80
2022/06/27 10:46:16;;;;;;;;;4.00;1.33;;;;;24.03;36.84;101282.16;5078073;28;46132;-77
2022/06/27 10:48:43;;;;;;;;;2.00;2.00;;;;;24.19;36.69;101301.94;5083731;27;45413;-85
2022/06/27 10:51:21;;;;;;;;;2.00;2.00;;;;;24.34;36.67;101306.59;5083664;27;44797;-71
2022/06/27 10:53:51;;;;;;;;;3.67;2.00;;;;;24.09;36.77;101250.63;5081070;27;46595;-74
2022/06/27 10:56:35;;;;;;;;;1.33;1.33;;;;;24.34;36.54;101303.91;5084674;27;44846;-78
2022/06/27 10:59:25;;;;;;;;;1.00;1.00;;;;;24.43;36.61;101307.94;5067946;27;45570;-77
2022/06/27 11:01:51;;;;;;;;;1.00;1.00;;;;;24.58;36.74;101306.38;5081590;28;45260;-84
2022/06/27 11:04:27;;;;;;;;;2.00;2.00;;;;;24.77;36.21;101311.72;5074647;27;46589;-78
2022/06/27 11:06:59;;;;;;;;;2.00;2.00;;;;;24.65;35.92;101267.66;5069203;27;45385;-76
2022/06/27 11:09:49;;;;;;;;;3.00;3.00;;;;;24.65;36.14;101282.84;5082525;28;45657;-80
2022/06/27 11:12:17;;;;;;;;;2.00;2.00;;;;;24.54;36.09;101227.16;5081192;27;45508;-79
2022/06/27 11:15:03;;;;;;;;;2.00;2.00;;;;;24.92;36.37;101286.88;5080942;27;46130;-77
2022/06/27 11:17:41;;;;;;;;;1.67;1.00;;;;;24.96;36.22;101287.56;5080783;27;45157;-76
2022/06/27 11:20:25;;;;;;;;;7.00;5.33;;;;;24.76;35.59;101259.97;5077643;27;46181;-84
2022/06/27 11:22:57;;;;;;;;;3.00;2.00;;;;;24.83;34.64;101262.34;5079681;27;45488;-81
2022/06/27 11:25:27;;;;;;;;;3.00;3.00;;;;;24.97;34.89;101276.78;5078343;27;46164;-80
2022/06/27 11:27:54;;;;;;;;;3.00;3.00;;;;;24.80;34.31;101233.91;5079421;27;45629;-74
2022/06/27 11:33:18;;;;;;;;;4.33;2.33;;;;;25.09;34.02;101269.09;5082615;27;45798;-72
2022/06/27 11:35:45;;;;;;;;;2.25;2.00;;;;;25.13;33.79;101282.25;5079620;27;45304;-71
2022/06/27 11:38:11;;;;;;;;;1.00;1.00;;;;;25.05;34.06;101283.59;5082010;27;45437;-78